Terminal Aerodrome Forecast
Issued by NWS

Home | Current Version | Previous Version | Text Only | Print | Product List | Glossary Off
Versions: 1 2 3 4 5 6 7 8 9 10 11 12 13 14

000
FTUS45 KGGW 291126
TAFGDV
TAF
KGDV 291126Z 2912/3012 VRB05KT P6SM FEW100
     FM291700 23007KT P6SM FEW150
     FM300200 VRB05KT P6SM SCT140
     FM300600 02004KT P6SM BKN140
      AMD LTD TO CLD VIS AND WIND=

USA.gov is the U.S. government's official web portal to all federal, state and local government web resources and services.